createdAt,value
2018-11-27T00:00:21.831Z,82.1
2018-11-27T00:01:02.411Z,81.92
2018-11-27T00:01:42.971Z,81.92
2018-11-27T00:02:23.538Z,82.2
2018-11-27T00:03:04.096Z,82.2
2018-11-27T00:03:44.663Z,82.29
2018-11-27T00:04:25.217Z,82.57
2018-11-27T00:05:05.783Z,82.01
2018-11-27T00:05:46.337Z,82.29
2018-11-27T00:06:26.923Z,82.1
2018-11-27T00:07:07.493Z,82.2
2018-11-27T00:07:48.037Z,82.1
2018-11-27T00:08:28.588Z,82.2
2018-11-27T00:09:09.154Z,82.39
2018-11-27T00:09:49.716Z,82.67
2018-11-27T00:10:30.277Z,82.67
2018-11-27T00:11:10.836Z,82.39
2018-11-27T00:11:51.387Z,82.48
2018-11-27T00:12:31.952Z,82.57
2018-11-27T00:13:12.511Z,82.57
2018-11-27T00:13:53.069Z,82.39
2018-11-27T00:14:33.757Z,82.2
2018-11-27T00:15:14.310Z,82.29
2018-11-27T00:15:54.870Z,82.2
2018-11-27T00:16:35.471Z,82.39
2018-11-27T00:17:16.078Z,82.76
2018-11-27T00:17:56.660Z,82.86
2018-11-27T00:18:37.222Z,82.86
2018-11-27T00:19:17.795Z,82.67
2018-11-27T00:21:30.591Z,82.1
2018-11-27T00:22:11.153Z,82.1
2018-11-27T00:22:51.711Z,82.2
2018-11-27T00:23:32.260Z,82.76
2018-11-27T00:24:12.822Z,82.86
2018-11-27T00:24:53.380Z,82.76
2018-11-27T00:25:33.938Z,83.24
2018-11-27T00:26:14.492Z,82.67
2018-11-27T00:26:55.040Z,82.57
2018-11-27T00:27:35.600Z,82.86
2018-11-27T00:28:16.163Z,82.86
2018-11-27T00:28:56.719Z,82.86
2018-11-27T00:29:37.267Z,82.67
2018-11-27T00:30:17.822Z,82.76
2018-11-27T00:30:58.371Z,82.86
2018-11-27T00:31:38.934Z,82.86
2018-11-27T00:32:19.491Z,82.86
2018-11-27T00:33:00.043Z,82.1
2018-11-27T00:33:40.596Z,82.2
2018-11-27T00:34:21.154Z,82.67
2018-11-27T00:35:01.713Z,82.48
2018-11-27T00:35:42.283Z,82.1
2018-11-27T00:36:22.831Z,82.86
2018-11-27T00:37:03.383Z,82.34
2018-11-27T00:37:43.946Z,82.29
2018-11-27T00:38:24.499Z,82.15
2018-11-27T00:39:05.053Z,82.67
2018-11-27T00:39:45.610Z,82.44
2018-11-27T00:40:26.174Z,82.67
2018-11-27T00:41:06.731Z,82.63
2018-11-27T00:41:47.284Z,82.53
2018-11-27T00:42:27.856Z,82.34
2018-11-27T00:43:08.427Z,82.34
2018-11-27T00:43:48.987Z,82.34
2018-11-27T00:44:29.546Z,82.57
2018-11-27T00:45:10.161Z,82.06
2018-11-27T00:45:50.670Z,81.87
2018-11-27T00:46:31.241Z,82.57
2018-11-27T00:47:11.807Z,82.1
2018-11-27T00:47:52.360Z,82.2
2018-11-27T00:48:32.910Z,81.68
2018-11-27T00:49:13.470Z,81.87
2018-11-27T00:49:54.023Z,81.77
2018-11-27T00:50:34.573Z,81.87
2018-11-27T00:51:15.134Z,81.87
2018-11-27T00:51:55.696Z,81.96
2018-11-27T00:52:36.251Z,82.01
2018-11-27T00:53:16.806Z,81.49
2018-11-27T00:53:57.363Z,81.59
2018-11-27T00:54:37.910Z,81.77
2018-11-27T00:55:18.477Z,81.87
2018-11-27T00:55:59.031Z,82.01
2018-11-27T00:56:39.591Z,81.77
2018-11-27T00:57:20.160Z,81.59
2018-11-27T00:58:00.729Z,81.49
2018-11-27T00:58:41.287Z,81.68
2018-11-27T00:59:21.853Z,81.3
2018-11-27T01:00:02.417Z,81.12
2018-11-27T01:00:42.975Z,81.3
2018-11-27T01:01:23.536Z,81.4
2018-11-27T01:02:04.098Z,81.3
2018-11-27T01:02:44.660Z,81.21
2018-11-27T01:03:25.224Z,81.21
2018-11-27T01:04:05.780Z,81.3
2018-11-27T01:04:46.343Z,81.77
2018-11-27T01:05:26.899Z,80.93
2018-11-27T01:06:07.466Z,81.21
2018-11-27T01:06:48.014Z,81.3
2018-11-27T01:07:28.574Z,81.3
2018-11-27T01:08:09.146Z,81.3
2018-11-27T01:08:49.711Z,81.21
2018-11-27T01:09:30.262Z,81.49
2018-11-27T01:10:10.816Z,81.21
2018-11-27T01:10:51.387Z,81.49
2018-11-27T01:11:31.959Z,81.49
2018-11-27T01:12:12.520Z,81.59
2018-11-27T01:12:53.075Z,81.96
2018-11-27T01:13:33.626Z,81.96
2018-11-27T01:14:14.184Z,81.59
2018-11-27T01:14:54.749Z,81.77
2018-11-27T01:15:35.306Z,81.68
2018-11-27T01:16:15.875Z,81.87
2018-11-27T01:16:56.463Z,81.68
2018-11-27T01:17:37.012Z,82.06
2018-11-27T01:18:17.579Z,82.06
2018-11-27T01:18:58.130Z,81.87
2018-11-27T01:19:38.692Z,81.87
2018-11-27T01:20:19.287Z,82.15
2018-11-27T01:20:59.849Z,81.96
2018-11-27T01:21:40.414Z,81.96
2018-11-27T01:22:20.962Z,81.68
2018-11-27T01:23:01.519Z,82.06
2018-11-27T01:23:42.077Z,81.77
2018-11-27T01:24:22.634Z,81.96
2018-11-27T01:25:03.194Z,81.87
2018-11-27T01:25:43.751Z,81.96
2018-11-27T01:26:24.315Z,81.87
2018-11-27T01:27:04.911Z,81.68
2018-11-27T01:27:45.471Z,82.15
2018-11-27T01:28:26.031Z,82.06
2018-11-27T01:29:06.582Z,81.96
2018-11-27T01:29:47.142Z,82.06
2018-11-27T01:30:27.701Z,81.87
2018-11-27T01:31:08.258Z,81.96
2018-11-27T01:31:48.821Z,81.77
2018-11-27T01:32:29.385Z,81.87
2018-11-27T01:33:09.942Z,81.87
2018-11-27T01:33:50.566Z,81.77
2018-11-27T01:34:31.093Z,81.68
2018-11-27T01:35:11.649Z,81.49
2018-11-27T01:35:52.193Z,81.68
2018-11-27T01:36:32.759Z,81.96
2018-11-27T01:37:13.312Z,81.59
2018-11-27T01:37:53.869Z,81.77
2018-11-27T01:38:34.419Z,81.96
2018-11-27T01:39:14.982Z,81.68
2018-11-27T01:39:55.539Z,81.87
2018-11-27T01:40:36.099Z,81.96
2018-11-27T01:41:16.663Z,82.25
2018-11-27T01:41:57.216Z,82.06
2018-11-27T01:42:37.790Z,82.06
2018-11-27T01:43:18.346Z,82.06
2018-11-27T01:43:58.904Z,81.77
2018-11-27T01:44:39.450Z,82.06
2018-11-27T01:45:20.020Z,82.15
2018-11-27T01:46:00.585Z,82.15
2018-11-27T01:46:41.145Z,81.96
2018-11-27T01:47:21.694Z,81.96
2018-11-27T01:48:02.260Z,81.87
2018-11-27T01:48:42.833Z,81.77
2018-11-27T01:49:23.444Z,82.15
2018-11-27T01:50:04.232Z,81.96
2018-11-27T01:50:44.786Z,82.25
2018-11-27T01:51:25.358Z,81.77
2018-11-27T01:52:05.918Z,81.96
2018-11-27T01:52:46.472Z,81.59
2018-11-27T01:53:27.026Z,81.68
2018-11-27T01:54:07.574Z,81.96
2018-11-27T01:54:48.138Z,81.68
2018-11-27T01:55:28.702Z,81.87
2018-11-27T01:56:09.255Z,81.59
2018-11-27T01:56:49.813Z,81.87
2018-11-27T01:57:30.393Z,81.87
2018-11-27T01:58:10.951Z,81.59
2018-11-27T01:58:51.513Z,81.77
2018-11-27T01:59:32.078Z,81.96
2018-11-27T02:00:12.634Z,81.87
2018-11-27T02:00:53.252Z,81.59
2018-11-27T02:01:33.775Z,81.87
2018-11-27T02:02:14.337Z,81.77
2018-11-27T02:02:54.898Z,81.59
2018-11-27T02:03:35.458Z,82.25
2018-11-27T02:04:16.023Z,82.25
2018-11-27T02:04:56.582Z,81.96
2018-11-27T02:05:37.137Z,82.06
2018-11-27T02:06:17.707Z,82.06
2018-11-27T02:06:58.276Z,82.06
2018-11-27T02:07:38.884Z,82.06
2018-11-27T02:08:19.453Z,82.06
2018-11-27T02:09:00.020Z,81.87
2018-11-27T02:09:40.589Z,82.06
2018-11-27T02:10:21.149Z,82.06
2018-11-27T02:11:01.706Z,81.77
2018-11-27T02:11:42.273Z,82.63
2018-11-27T02:12:22.836Z,82.15
2018-11-27T02:13:03.393Z,82.06
2018-11-27T02:13:43.942Z,81.77
2018-11-27T02:14:24.508Z,81.68
2018-11-27T02:15:05.081Z,81.77
2018-11-27T02:15:45.637Z,81.77
2018-11-27T02:16:26.202Z,81.68
2018-11-27T02:17:06.767Z,81.96
2018-11-27T02:17:47.343Z,82.25
2018-11-27T02:18:27.905Z,82.06
2018-11-27T02:19:08.457Z,81.96
2018-11-27T02:19:49.042Z,82.06
2018-11-27T02:20:29.669Z,82.25
2018-11-27T02:21:10.196Z,82.15
2018-11-27T02:21:50.759Z,81.77
2018-11-27T02:22:31.306Z,81.87
2018-11-27T02:23:11.873Z,81.96
2018-11-27T02:23:52.431Z,82.25
2018-11-27T02:24:32.988Z,82.15
2018-11-27T02:25:13.563Z,82.25
2018-11-27T02:25:54.117Z,81.96
2018-11-27T02:26:34.911Z,82.06
2018-11-27T02:27:15.465Z,82.06
2018-11-27T02:27:56.040Z,82.15
2018-11-27T02:28:36.589Z,82.15
2018-11-27T02:29:17.137Z,82.15
2018-11-27T02:29:57.683Z,81.96
2018-11-27T02:30:38.268Z,82.25
2018-11-27T02:31:18.839Z,81.96
2018-11-27T02:31:59.405Z,81.96
2018-11-27T02:32:39.962Z,82.15
2018-11-27T02:33:20.524Z,81.96
2018-11-27T02:34:01.079Z,81.59
2018-11-27T02:34:41.626Z,81.87
2018-11-27T02:35:22.179Z,81.96
2018-11-27T02:36:02.731Z,82.06
2018-11-27T02:36:43.305Z,82.15
2018-11-27T02:37:23.857Z,81.87
2018-11-27T02:38:04.418Z,81.59
2018-11-27T02:38:44.973Z,81.49
2018-11-27T02:39:25.534Z,81.87
2018-11-27T02:40:06.087Z,82.25
2018-11-27T02:40:46.650Z,81.87
2018-11-27T02:41:27.201Z,81.96
2018-11-27T02:42:07.772Z,82.15
2018-11-27T02:42:48.342Z,82.15
2018-11-27T02:43:28.893Z,82.5
2018-11-27T02:44:09.438Z,81.93
2018-11-27T02:44:50.058Z,81.83
2018-11-27T02:45:30.622Z,82.59
2018-11-27T02:46:11.179Z,81.96
2018-11-27T02:46:51.772Z,82.15
2018-11-27T02:47:32.341Z,81.96
2018-11-27T02:48:12.907Z,81.96
2018-11-27T02:48:53.502Z,82.02
2018-11-27T02:49:34.417Z,82.15
2018-11-27T02:50:14.999Z,82.15
2018-11-27T02:50:55.561Z,82.44
2018-11-27T02:51:36.113Z,82.25
2018-11-27T02:52:16.671Z,82.12
2018-11-27T02:52:57.231Z,81.68
2018-11-27T02:53:37.771Z,82.06
2018-11-27T02:54:18.329Z,81.87
2018-11-27T02:54:58.881Z,81.77
2018-11-27T02:55:39.441Z,81.87
2018-11-27T02:56:19.990Z,82.25
2018-11-27T02:57:00.590Z,82.15
2018-11-27T02:57:41.156Z,82.53
2018-11-27T02:58:21.702Z,81.93
2018-11-27T02:59:02.263Z,82.15
2018-11-27T02:59:42.821Z,82.25
2018-11-27T03:00:23.418Z,82.34
2018-11-27T03:01:04.001Z,82.63
2018-11-27T03:01:44.559Z,81.96
2018-11-27T03:02:25.127Z,81.96
2018-11-27T03:03:05.677Z,82.15
2018-11-27T03:03:46.229Z,82.06
2018-11-27T03:04:26.811Z,82.15
2018-11-27T03:05:07.353Z,82.25
2018-11-27T03:05:47.915Z,82.06
2018-11-27T03:06:28.468Z,82.34
2018-11-27T03:07:09.037Z,82.15
2018-11-27T03:07:49.592Z,82.25
2018-11-27T03:08:30.177Z,82.34
2018-11-27T03:09:10.727Z,82.06
2018-11-27T03:09:51.302Z,82.63
2018-11-27T03:10:31.865Z,82.5
2018-11-27T03:11:12.422Z,82.72
2018-11-27T03:11:52.989Z,82.5
2018-11-27T03:12:33.544Z,82.34
2018-11-27T03:13:14.098Z,82.31
2018-11-27T03:13:54.676Z,82.59
2018-11-27T03:14:35.238Z,82.5
2018-11-27T03:15:15.799Z,82.59
2018-11-27T03:15:56.364Z,82.59
2018-11-27T03:16:36.919Z,82.53
2018-11-27T03:17:17.476Z,82.31
2018-11-27T03:17:58.020Z,82.31
2018-11-27T03:18:38.584Z,82.31
2018-11-27T03:19:19.150Z,82.44
2018-11-27T03:19:59.768Z,82.12
2018-11-27T03:20:40.324Z,82.12
2018-11-27T03:21:20.900Z,82.12
2018-11-27T03:22:01.451Z,82.21
2018-11-27T03:22:42.036Z,81.93
2018-11-27T03:23:22.585Z,82.12
2018-11-27T03:24:03.149Z,82.59
2018-11-27T03:24:43.713Z,82.78
2018-11-27T03:25:24.277Z,82.25
2018-11-27T03:26:04.863Z,82.12
2018-11-27T03:26:45.425Z,82.12
2018-11-27T03:27:25.990Z,81.96
2018-11-27T03:28:06.566Z,82.12
2018-11-27T03:28:47.128Z,82.31
2018-11-27T03:29:27.681Z,82.12
2018-11-27T03:30:08.237Z,82.21
2018-11-27T03:30:48.793Z,82.78
2018-11-27T03:31:29.351Z,82.87
2018-11-27T03:32:09.926Z,82.59
2018-11-27T03:32:50.496Z,82.78
2018-11-27T03:33:31.088Z,82.78
2018-11-27T03:34:11.645Z,82.78
2018-11-27T03:34:52.245Z,82.59
2018-11-27T03:35:32.799Z,82.78
2018-11-27T03:36:13.373Z,82.5
2018-11-27T03:36:53.930Z,82.78
2018-11-27T03:37:34.514Z,82.4
2018-11-27T03:38:15.063Z,82.68
2018-11-27T03:38:55.631Z,83.15
2018-11-27T03:39:36.186Z,83.06
2018-11-27T03:40:16.769Z,82.97
2018-11-27T03:40:57.328Z,83.15
2018-11-27T03:41:37.893Z,82.5
2018-11-27T03:42:18.446Z,82.78
2018-11-27T03:42:59.006Z,82.78
2018-11-27T03:43:39.550Z,82.78
2018-11-27T03:44:20.102Z,82.21
2018-11-27T03:45:00.669Z,82.31
2018-11-27T03:45:41.227Z,82.59
2018-11-27T03:46:21.802Z,82.78
2018-11-27T03:47:02.358Z,82.59
2018-11-27T03:47:42.921Z,82.31
2018-11-27T03:48:23.478Z,82.68
2018-11-27T03:49:04.040Z,82.31
2018-11-27T03:49:44.598Z,82.21
2018-11-27T03:50:25.155Z,82.59
2018-11-27T03:51:05.721Z,82.78
2018-11-27T03:51:46.275Z,83.06
2018-11-27T03:52:26.837Z,83.06
2018-11-27T03:53:07.398Z,83.15
2018-11-27T03:53:47.987Z,83.15
2018-11-27T03:54:28.548Z,82.97
2018-11-27T03:55:09.119Z,82.59
2018-11-27T03:55:49.687Z,82.78
2018-11-27T03:56:30.251Z,82.78
2018-11-27T03:57:10.850Z,82.31
2018-11-27T03:57:51.416Z,82.12
2018-11-27T03:58:31.989Z,82.31
2018-11-27T03:59:12.551Z,82.78
2018-11-27T03:59:53.108Z,82.21
2018-11-27T04:00:33.673Z,82.31
2018-11-27T04:01:14.263Z,82.21
2018-11-27T04:01:54.813Z,81.83
2018-11-27T04:02:35.379Z,82.12
2018-11-27T04:03:15.931Z,82.21
2018-11-27T04:03:56.494Z,82.4
2018-11-27T04:04:37.097Z,82.31
2018-11-27T04:05:17.653Z,81.93
2018-11-27T04:05:58.206Z,81.93
2018-11-27T04:06:38.766Z,82.21
2018-11-27T04:07:19.326Z,81.93
2018-11-27T04:07:59.891Z,81.93
2018-11-27T04:08:40.453Z,81.93
2018-11-27T04:09:21.014Z,82.12
2018-11-27T04:10:01.552Z,82.02
2018-11-27T04:10:42.128Z,82.21
2018-11-27T04:11:22.719Z,82.59
2018-11-27T04:12:03.290Z,82.5
2018-11-27T04:12:43.849Z,82.5
2018-11-27T04:13:24.413Z,82.78
2018-11-27T04:14:04.964Z,82.59
2018-11-27T04:14:45.517Z,81.74
2018-11-27T04:15:26.069Z,82.59
2018-11-27T04:16:06.635Z,82.31
2018-11-27T04:16:47.213Z,82.5
2018-11-27T04:17:27.797Z,82.21
2018-11-27T04:18:08.358Z,82.59
2018-11-27T04:18:48.927Z,82.59
2018-11-27T04:19:29.496Z,81.93
2018-11-27T04:20:10.044Z,82.31
2018-11-27T04:20:50.613Z,82.12
2018-11-27T04:21:31.179Z,82.31
2018-11-27T04:22:11.731Z,82.31
2018-11-27T04:22:52.289Z,82.21
2018-11-27T04:23:32.852Z,82.31
2018-11-27T04:24:13.402Z,82.31
2018-11-27T04:24:53.959Z,82.12
2018-11-27T04:25:34.520Z,82.12
2018-11-27T04:26:15.072Z,82.12
2018-11-27T04:26:55.628Z,82.78
2018-11-27T04:27:36.217Z,82.21
2018-11-27T04:28:16.825Z,82.78
2018-11-27T04:28:57.370Z,81.64
2018-11-27T04:29:37.941Z,82.12
2018-11-27T04:30:18.500Z,82.21
2018-11-27T04:30:59.054Z,81.74
2018-11-27T04:31:39.604Z,82.4
2018-11-27T04:32:20.164Z,82.02
2018-11-27T04:33:00.743Z,82.12
2018-11-27T04:33:41.311Z,82.12
2018-11-27T04:34:21.857Z,82.59
2018-11-27T04:35:02.416Z,81.93
2018-11-27T04:35:42.991Z,81.93
2018-11-27T04:36:23.531Z,81.93
2018-11-27T04:37:04.087Z,81.74
2018-11-27T04:37:44.646Z,81.93
2018-11-27T04:38:25.217Z,81.74
2018-11-27T04:39:05.773Z,82.12
2018-11-27T04:39:46.351Z,82.02
2018-11-27T04:40:26.902Z,82.02
2018-11-27T04:41:07.474Z,81.83
2018-11-27T04:41:48.041Z,82.02
2018-11-27T04:42:28.597Z,82.02
2018-11-27T04:43:09.149Z,82.02
2018-11-27T04:43:49.701Z,81.93
2018-11-27T04:44:30.259Z,81.83
2018-11-27T04:45:10.854Z,82.21
2018-11-27T04:45:51.361Z,82.12
2018-11-27T04:46:31.922Z,82.02
2018-11-27T04:47:12.491Z,82.02
2018-11-27T04:47:53.053Z,81.93
2018-11-27T04:48:33.633Z,82.21
2018-11-27T04:49:14.181Z,81.74
2018-11-27T04:49:54.734Z,82.4
2018-11-27T04:50:35.327Z,82.4
2018-11-27T04:51:15.885Z,82.21
2018-11-27T04:51:56.437Z,82.02
2018-11-27T04:52:37.000Z,81.74
2018-11-27T04:53:17.571Z,82.02
2018-11-27T04:53:58.142Z,81.83
2018-11-27T04:54:38.696Z,81.93
2018-11-27T04:55:19.922Z,81.74
2018-11-27T04:55:59.831Z,81.74
2018-11-27T04:56:40.395Z,81.93
2018-11-27T04:57:20.961Z,82.02
2018-11-27T04:58:01.516Z,82.21
2018-11-27T04:58:42.093Z,81.93
2018-11-27T04:59:22.650Z,82.12
2018-11-27T05:00:03.301Z,82.59
2018-11-27T05:00:43.890Z,81.93
2018-11-27T05:01:24.533Z,82.12
2018-11-27T05:02:05.121Z,82.21
2018-11-27T05:02:45.686Z,82.12
2018-11-27T05:03:26.245Z,81.93
2018-11-27T05:04:06.798Z,81.93
2018-11-27T05:04:47.352Z,82.12
2018-11-27T05:05:27.916Z,81.83
2018-11-27T05:06:08.467Z,82.21
2018-11-27T05:06:49.027Z,82.12
2018-11-27T05:07:29.594Z,82.02
2018-11-27T05:08:10.146Z,82.12
2018-11-27T05:08:50.698Z,81.83
2018-11-27T05:09:31.256Z,81.74
2018-11-27T05:10:11.804Z,82.02
2018-11-27T05:10:52.359Z,81.83
2018-11-27T05:11:32.918Z,81.64
2018-11-27T05:12:13.471Z,81.93
2018-11-27T05:12:54.035Z,81.93
2018-11-27T05:13:34.597Z,81.93
2018-11-27T05:14:15.152Z,81.83
2018-11-27T05:14:55.729Z,81.55
2018-11-27T05:15:36.285Z,81.83
2018-11-27T05:16:16.836Z,82.02
2018-11-27T05:16:57.389Z,85.24
2018-11-27T05:17:37.941Z,90.48
2018-11-27T05:18:18.504Z,94.46
2018-11-27T05:18:59.056Z,94.37
2018-11-27T05:19:39.640Z,91.34
2018-11-27T05:20:20.211Z,88.31
2018-11-27T05:21:00.772Z,85.85
2018-11-27T05:21:41.328Z,83.67
2018-11-27T05:22:21.883Z,84.05
2018-11-27T05:23:02.454Z,82.53
2018-11-27T05:23:43.000Z,81.49
2018-11-27T05:24:23.572Z,80.55
2018-11-27T05:25:04.125Z,79.88
2018-11-27T05:25:44.697Z,79.88
2018-11-27T05:26:25.252Z,79.98
2018-11-27T05:27:05.810Z,79.03
2018-11-27T05:27:46.370Z,79.41
2018-11-27T05:28:26.933Z,79.32
2018-11-27T05:29:07.502Z,79.32
2018-11-27T05:29:48.101Z,79.32
2018-11-27T05:30:28.635Z,79.88
2018-11-27T05:31:09.198Z,79.98
2018-11-27T05:31:49.778Z,79.69
2018-11-27T05:32:30.332Z,79.94
2018-11-27T05:33:10.895Z,80.17
2018-11-27T05:33:51.450Z,80.22
2018-11-27T05:34:32.012Z,80.41
2018-11-27T05:35:12.573Z,79.85
2018-11-27T05:35:53.128Z,80.79
2018-11-27T05:36:33.703Z,80.36
2018-11-27T05:37:14.253Z,80.41
2018-11-27T05:37:54.816Z,80.51
2018-11-27T05:38:35.381Z,80.13
2018-11-27T05:39:15.943Z,80.6
2018-11-27T05:39:56.494Z,80.51
2018-11-27T05:40:37.040Z,80.6
2018-11-27T05:41:17.618Z,80.88
2018-11-27T05:41:58.172Z,80.88
2018-11-27T05:42:38.724Z,80.6
2018-11-27T05:43:19.294Z,80.6
2018-11-27T05:43:59.875Z,80.6
2018-11-27T05:44:40.491Z,80.79
2018-11-27T05:45:21.046Z,80.69
2018-11-27T05:46:01.641Z,80.98
2018-11-27T05:46:42.196Z,80.79
2018-11-27T05:47:22.965Z,80.6
2018-11-27T05:48:03.422Z,81.36
2018-11-27T05:48:43.963Z,81.36
2018-11-27T05:49:24.506Z,81.17
2018-11-27T05:50:05.109Z,81.26
2018-11-27T05:50:45.671Z,81.17
2018-11-27T05:51:26.268Z,81.26
2018-11-27T05:52:06.833Z,81.36
2018-11-27T05:52:47.398Z,81.26
2018-11-27T05:53:27.951Z,81.26
2018-11-27T05:54:08.530Z,81.55
2018-11-27T05:54:49.108Z,81.55
2018-11-27T05:55:29.680Z,81.26
2018-11-27T05:56:10.231Z,82.12
2018-11-27T05:56:50.780Z,81.93
2018-11-27T05:57:31.335Z,81.74
2018-11-27T05:58:11.904Z,81.36
2018-11-27T05:58:52.487Z,81.55
2018-11-27T05:59:33.051Z,81.07
2018-11-27T06:00:13.645Z,81.55
2018-11-27T06:00:54.230Z,81.17
2018-11-27T06:01:34.898Z,81.17
2018-11-27T06:02:15.471Z,81.17
2018-11-27T06:02:56.033Z,81.36
2018-11-27T06:03:36.618Z,81.36
2018-11-27T06:04:17.168Z,81.45
2018-11-27T06:04:57.725Z,81.26
2018-11-27T06:05:38.280Z,81.17
2018-11-27T06:06:18.824Z,81.17
2018-11-27T06:06:59.553Z,81.26
2018-11-27T06:07:40.117Z,81.45
2018-11-27T06:08:20.660Z,80.6
2018-11-27T06:09:01.224Z,80.79
2018-11-27T06:09:41.796Z,80.79
2018-11-27T06:10:22.351Z,81.07
2018-11-27T06:11:02.904Z,80.79
2018-11-27T06:11:43.460Z,80.51
2018-11-27T06:12:24.015Z,80.69
2018-11-27T06:13:04.587Z,80.41
2018-11-27T06:13:45.145Z,80.79
2018-11-27T06:14:25.701Z,80.79
2018-11-27T06:15:06.272Z,80.98
2018-11-27T06:15:46.830Z,80.88
2018-11-27T06:16:27.382Z,80.79
2018-11-27T06:17:07.948Z,81.17
2018-11-27T06:17:48.528Z,81.26
2018-11-27T06:18:29.075Z,81.17
2018-11-27T06:19:09.671Z,81.36
2018-11-27T06:19:50.219Z,81.17
2018-11-27T06:20:30.858Z,81.26
2018-11-27T06:21:11.408Z,81.26
2018-11-27T06:21:51.973Z,80.88
2018-11-27T06:22:32.531Z,80.79
2018-11-27T06:23:13.076Z,80.79
2018-11-27T06:23:53.630Z,81.55
2018-11-27T06:24:34.189Z,81.26
2018-11-27T06:25:14.742Z,81.17
2018-11-27T06:25:55.293Z,81.07
2018-11-27T06:26:35.850Z,81.45
2018-11-27T06:27:16.413Z,81.36
2018-11-27T06:27:56.963Z,81.07
2018-11-27T06:28:37.523Z,81.36
2018-11-27T06:29:18.691Z,81.07
2018-11-27T06:29:58.660Z,81.26
2018-11-27T06:30:39.208Z,81.45
2018-11-27T06:31:19.772Z,81.45
2018-11-27T06:32:00.326Z,80.79
2018-11-27T06:32:40.880Z,80.79
2018-11-27T06:33:21.525Z,80.69
2018-11-27T06:34:02.086Z,80.88
2018-11-27T06:34:43.132Z,80.88
2018-11-27T06:35:23.210Z,81.07
2018-11-27T06:36:03.762Z,80.79
2018-11-27T06:36:44.314Z,80.79
2018-11-27T06:37:25.037Z,80.88
2018-11-27T06:38:05.650Z,80.79
2018-11-27T06:38:46.249Z,80.51
2018-11-27T06:39:27.021Z,80.79
2018-11-27T06:40:07.613Z,80.6
2018-11-27T06:40:48.187Z,80.13
2018-11-27T06:41:28.736Z,80.79
2018-11-27T06:42:09.300Z,80.88
2018-11-27T06:42:49.859Z,80.98
2018-11-27T06:43:30.437Z,81.36
2018-11-27T06:44:10.980Z,81.45
2018-11-27T06:44:51.524Z,81.36
2018-11-27T06:45:32.086Z,80.6
2018-11-27T06:46:12.637Z,80.79
2018-11-27T06:46:53.205Z,80.88
2018-11-27T06:47:33.753Z,80.69
2018-11-27T06:48:14.318Z,80.88
2018-11-27T06:48:54.876Z,80.79
2018-11-27T06:49:35.427Z,80.79
2018-11-27T06:50:15.985Z,80.69
2018-11-27T06:50:56.565Z,80.88
2018-11-27T06:51:37.121Z,80.6
2018-11-27T06:52:17.687Z,80.79
2018-11-27T06:52:58.255Z,80.88
2018-11-27T06:53:38.809Z,80.88
2018-11-27T06:54:19.361Z,80.98
2018-11-27T06:54:59.964Z,80.98
2018-11-27T06:55:40.516Z,80.98
2018-11-27T06:56:21.081Z,80.51
2018-11-27T06:57:01.669Z,80.69
2018-11-27T06:57:42.236Z,80.79
2018-11-27T06:58:22.798Z,80.79
2018-11-27T06:59:03.376Z,80.79
2018-11-27T06:59:43.967Z,80.79
2018-11-27T07:00:24.533Z,79.94
2018-11-27T07:01:05.181Z,79.75
2018-11-27T07:01:45.765Z,79.94
2018-11-27T07:02:26.313Z,80.17
2018-11-27T07:03:06.899Z,80.17
2018-11-27T07:03:47.442Z,80.64
2018-11-27T07:04:27.998Z,79.88
2018-11-27T07:05:08.544Z,79.88
2018-11-27T07:05:49.105Z,80.13
2018-11-27T07:06:29.665Z,80.04
2018-11-27T07:07:10.232Z,80.17
2018-11-27T07:07:50.792Z,79.98
2018-11-27T07:08:31.353Z,79.88
2018-11-27T07:09:11.913Z,79.6
2018-11-27T07:09:52.571Z,79.88
2018-11-27T07:10:33.074Z,79.94
2018-11-27T07:11:13.627Z,80.17
2018-11-27T07:11:54.187Z,80.07
2018-11-27T07:12:34.747Z,79.94
2018-11-27T07:13:15.314Z,79.79
2018-11-27T07:13:55.882Z,79.69
2018-11-27T07:14:36.456Z,79.41
2018-11-27T07:15:17.007Z,79.13
2018-11-27T07:15:57.571Z,79.32
2018-11-27T07:16:38.124Z,79.03
2018-11-27T07:17:18.688Z,79.03
2018-11-27T07:17:59.248Z,79.09
2018-11-27T07:18:39.799Z,79.09
2018-11-27T07:19:20.375Z,78.99
2018-11-27T07:20:00.941Z,79.37
2018-11-27T07:20:41.494Z,79.66
2018-11-27T07:21:22.052Z,79.85
2018-11-27T07:22:02.714Z,79.79
2018-11-27T07:22:43.264Z,79.75
2018-11-27T07:23:23.821Z,79.75
2018-11-27T07:24:04.393Z,80.41
2018-11-27T07:24:44.965Z,80.17
2018-11-27T07:25:25.553Z,80.07
2018-11-27T07:26:06.258Z,80.07
2018-11-27T07:26:46.815Z,79.98
2018-11-27T07:27:27.378Z,79.98
2018-11-27T07:28:07.941Z,79.69
2018-11-27T07:28:48.510Z,79.69
2018-11-27T07:29:29.079Z,79.88
2018-11-27T07:30:09.637Z,79.32
2018-11-27T07:30:50.184Z,79.22
2018-11-27T07:31:30.794Z,78.94
2018-11-27T07:32:12.272Z,78.94
2018-11-27T07:32:52.886Z,78.56
2018-11-27T07:33:33.453Z,78.46
2018-11-27T07:34:14.058Z,79.32
2018-11-27T07:34:54.612Z,79.22
2018-11-27T07:35:35.249Z,79.13
2018-11-27T07:36:15.889Z,79.41
2018-11-27T07:36:56.459Z,79.13
2018-11-27T07:37:37.007Z,79.13
2018-11-27T07:38:17.568Z,79.09
2018-11-27T07:38:58.176Z,79.32
2018-11-27T07:39:38.733Z,79.13
2018-11-27T07:40:19.284Z,79.32
2018-11-27T07:40:59.837Z,79.03
2018-11-27T07:41:40.405Z,79.41
2018-11-27T07:42:20.969Z,79.41
2018-11-27T07:43:01.526Z,79.13
2018-11-27T07:43:42.089Z,79.22
2018-11-27T07:44:22.631Z,79.5
2018-11-27T07:45:03.239Z,79.6
2018-11-27T07:45:43.801Z,79.32
2018-11-27T07:46:24.356Z,79.5
2018-11-27T07:47:04.929Z,79.03
2018-11-27T07:47:45.491Z,79.41
2018-11-27T07:48:26.040Z,79.32
2018-11-27T07:49:06.603Z,78.85
2018-11-27T07:49:47.157Z,78.85
2018-11-27T07:50:27.719Z,79.13
2018-11-27T07:51:08.277Z,78.46
2018-11-27T07:51:48.845Z,78.56
2018-11-27T07:52:29.405Z,78.94
2018-11-27T07:53:09.983Z,78.94
2018-11-27T07:53:50.552Z,78.46
2018-11-27T07:54:31.128Z,78.46
2018-11-27T07:55:11.683Z,78.65
2018-11-27T07:55:52.241Z,78.85
2018-11-27T07:56:32.864Z,78.56
2018-11-27T07:57:13.408Z,78.56
2018-11-27T07:57:53.954Z,78.56
2018-11-27T07:58:34.508Z,78.65
2018-11-27T07:59:15.068Z,78.85
2018-11-27T07:59:55.654Z,77.99
2018-11-27T08:00:36.202Z,78.18
2018-11-27T08:01:16.763Z,78.18
2018-11-27T08:01:57.345Z,78.56
2018-11-27T08:02:37.901Z,78.56
2018-11-27T08:03:18.493Z,78.46
2018-11-27T08:03:59.050Z,78.18
2018-11-27T08:04:39.655Z,78.37
2018-11-27T08:05:20.256Z,78.18
2018-11-27T08:06:00.831Z,78.27
2018-11-27T08:06:41.398Z,77.99
2018-11-27T08:07:21.958Z,78.27
2018-11-27T08:08:02.517Z,78.08
2018-11-27T08:08:43.075Z,77.7
2018-11-27T08:09:27.053Z,77.61
2018-11-27T08:10:06.107Z,77.42
2018-11-27T08:10:46.663Z,76.95
2018-11-27T08:11:27.428Z,76.95
2018-11-27T08:12:08.393Z,76.86
2018-11-27T08:12:49.120Z,77.23
2018-11-27T08:13:29.759Z,76.67
2018-11-27T08:14:10.311Z,76.95
2018-11-27T08:14:51.654Z,76.86
2018-11-27T08:15:32.249Z,76.86
2018-11-27T08:16:12.970Z,76.95
2018-11-27T08:16:54.308Z,76.86
2018-11-27T08:17:35.033Z,76.76
2018-11-27T08:18:15.711Z,76.86
2018-11-27T08:18:56.335Z,76.76
2018-11-27T08:19:36.930Z,76.95
2018-11-27T08:20:17.518Z,76.95
2018-11-27T08:20:58.072Z,76.48
2018-11-27T08:21:38.636Z,77.04
2018-11-27T08:22:19.187Z,77.04
2018-11-27T08:22:59.758Z,76.86
2018-11-27T08:23:40.313Z,76.95
2018-11-27T08:24:20.866Z,77.04
2018-11-27T08:25:01.439Z,76.86
2018-11-27T08:25:41.980Z,76.95
2018-11-27T08:26:22.550Z,76.86
2018-11-27T08:27:03.113Z,76.67
2018-11-27T08:27:44.446Z,76.95
2018-11-27T08:28:24.983Z,76.67
2018-11-27T08:29:05.544Z,77.04
2018-11-27T08:29:46.094Z,77.04
2018-11-27T08:30:26.652Z,76.48
2018-11-27T08:31:07.200Z,76.57
2018-11-27T08:31:47.754Z,76.1
2018-11-27T08:32:28.291Z,75.81
2018-11-27T08:33:08.870Z,76.04
2018-11-27T08:33:49.433Z,75.43
2018-11-27T08:34:29.998Z,75.62
2018-11-27T08:35:10.560Z,75.62
2018-11-27T08:35:51.116Z,76.1
2018-11-27T08:36:31.675Z,76.19
2018-11-27T08:37:12.241Z,76.04
2018-11-27T08:37:52.817Z,76.23
2018-11-27T08:38:33.369Z,76.23
2018-11-27T08:39:13.931Z,76.23
2018-11-27T08:39:54.521Z,75.85
2018-11-27T08:40:35.076Z,75.09
2018-11-27T08:41:15.619Z,75.19
2018-11-27T08:41:56.186Z,75.38
2018-11-27T08:42:36.748Z,75.66
2018-11-27T08:43:17.324Z,75.19
2018-11-27T08:43:57.910Z,75.57
2018-11-27T08:44:38.471Z,75.47
2018-11-27T08:45:19.050Z,75.09